Time;durP1;ratioP1;P1;durP2;ratioP2;P2;SDS_P1;SDS_P2;PMS_P1;PMS_P2;Temp;Humidity;BMP_temperature;BMP_pressure;BME280_temperature;BME280_humidity;BME280_pressure;Samples;Min_cycle;Max_cycle;Signal;HPM_P1;HPM_P2
2023/08/01 00:00:38;;;;;;;;;11.67;9.33;;;;;20.84;66.22;100420.06;5039898;28;45432;-73
2023/08/01 00:03:04;;;;;;;;;5.33;4.33;;;;;20.94;65.81;100440.25;5040125;28;45276;-72
2023/08/01 00:05:30;;;;;;;;;8.33;7.67;;;;;20.86;65.80;100434.19;5040251;28;45477;-72
2023/08/01 00:07:55;;;;;;;;;6.33;5.33;;;;;20.60;66.29;100437.19;5039793;28;46037;-72
2023/08/01 00:10:21;;;;;;;;;5.00;4.67;;;;;20.49;66.52;100436.41;5039871;28;46382;-73
2023/08/01 00:12:47;;;;;;;;;5.00;5.00;;;;;20.41;67.00;100423.25;5039870;28;45438;-72
2023/08/01 00:15:12;;;;;;;;;6.33;5.67;;;;;20.52;66.83;100434.59;5040208;28;45359;-74
2023/08/01 00:17:38;;;;;;;;;6.67;6.00;;;;;20.54;66.95;100424.84;5039543;28;45453;-75
2023/08/01 00:20:05;;;;;;;;;7.00;6.00;;;;;20.48;67.45;100405.50;5038188;28;45440;-75
2023/08/01 00:22:30;;;;;;;;;5.00;4.33;;;;;20.61;65.85;100407.09;5039782;28;45310;-74
2023/08/01 00:24:56;;;;;;;;;5.67;5.00;;;;;20.58;65.74;100392.06;5039795;28;45257;-75
2023/08/01 00:27:21;;;;;;;;;5.00;5.00;;;;;20.65;65.56;100393.78;5039633;28;45458;-75
2023/08/01 00:29:47;;;;;;;;;6.67;6.00;;;;;20.65;66.10;100406.16;5039629;28;45484;-72
2023/08/01 00:32:13;;;;;;;;;4.00;4.00;;;;;20.59;65.91;100396.53;5038681;28;45576;-72
2023/08/01 00:34:38;;;;;;;;;4.00;4.00;;;;;20.58;66.08;100396.50;5039691;28;45233;-73
2023/08/01 00:37:05;;;;;;;;;4.67;4.00;;;;;20.58;65.54;100401.81;5037895;28;46095;-72
2023/08/01 00:39:31;;;;;;;;;4.67;4.67;;;;;20.59;65.55;100399.19;5039443;28;45331;-72
2023/08/01 00:41:57;;;;;;;;;5.67;4.67;;;;;20.61;65.29;100397.38;5039566;28;45314;-73
2023/08/01 00:44:22;;;;;;;;;5.33;5.33;;;;;20.43;65.96;100381.66;5038208;28;45497;-72
2023/08/01 00:46:49;;;;;;;;;5.67;4.67;;;;;20.36;65.78;100380.84;5039384;28;45950;-72
2023/08/01 00:49:14;;;;;;;;;4.33;4.00;;;;;20.44;65.45;100389.59;5039465;28;45386;-73
2023/08/01 00:51:41;;;;;;;;;5.33;5.00;;;;;20.44;65.26;100372.81;5038674;28;45490;-72
2023/08/01 00:54:06;;;;;;;;;5.33;5.00;;;;;20.50;65.26;100382.47;5038158;28;45411;-72
2023/08/01 00:56:33;;;;;;;;;5.67;4.67;;;;;20.53;65.31;100379.75;5038898;28;46141;-72
2023/08/01 00:58:58;;;;;;;;;4.33;3.33;;;;;20.48;64.66;100374.53;5039228;28;45264;-72
2023/08/01 01:01:24;;;;;;;;;5.33;5.00;;;;;20.52;64.80;100378.00;5039036;28;45307;-72
2023/08/01 01:03:51;;;;;;;;;5.00;4.33;;;;;20.42;64.96;100377.25;5039347;28;45515;-72
2023/08/01 01:06:33;;;;;;;;;6.00;6.00;;;;;20.50;64.46;100377.16;5039286;28;45177;-72
2023/08/01 01:08:58;;;;;;;;;7.00;5.67;;;;;20.51;64.59;100379.75;5037655;28;45332;-72
2023/08/01 01:11:24;;;;;;;;;5.00;4.00;;;;;20.50;64.31;100371.84;5037812;28;45300;-74
2023/08/01 01:13:52;;;;;;;;;3.67;3.00;;;;;20.44;64.20;100360.41;5039177;28;45355;-72
2023/08/01 01:16:19;;;;;;;;;4.67;4.33;;;;;20.45;64.26;100362.19;5039121;28;46082;-72
2023/08/01 01:18:45;;;;;;;;;4.33;3.67;;;;;20.34;64.66;100363.22;5039042;28;45258;-72
2023/08/01 01:21:32;;;;;;;;;2.33;2.00;;;;;20.34;64.55;100365.88;5038718;28;45464;-73
2023/08/01 01:23:59;;;;;;;;;5.00;5.00;;;;;20.35;64.59;100360.56;5039062;28;45328;-73
2023/08/01 01:26:27;;;;;;;;;5.67;5.67;;;;;20.32;64.95;100360.56;5038539;28;45430;-72
2023/08/01 01:28:53;;;;;;;;;4.00;4.00;;;;;20.24;64.68;100350.06;5038115;28;45594;-72
2023/08/01 01:31:19;;;;;;;;;4.33;4.33;;;;;20.29;64.29;100362.38;5038823;28;45355;-72
2023/08/01 01:33:46;;;;;;;;;4.00;3.33;;;;;20.26;64.39;100348.25;5038749;28;45420;-73
2023/08/01 01:36:11;;;;;;;;;5.33;5.00;;;;;20.28;64.06;100350.91;5038404;28;45309;-71
2023/08/01 01:38:37;;;;;;;;;5.67;5.67;;;;;20.29;64.16;100351.78;5038460;28;45500;-75
2023/08/01 01:41:02;;;;;;;;;6.67;4.67;;;;;20.22;63.95;100351.00;5038476;28;45442;-72
2023/08/01 01:43:28;;;;;;;;;5.67;5.00;;;;;20.24;64.49;100351.84;5038699;28;45322;-72
2023/08/01 01:45:54;;;;;;;;;4.33;4.33;;;;;20.22;64.13;100351.84;5038319;28;45278;-73
2023/08/01 01:48:19;;;;;;;;;3.67;3.67;;;;;19.97;65.76;100351.28;5037356;28;45417;-72
2023/08/01 01:50:45;;;;;;;;;4.33;4.33;;;;;19.80;65.70;100337.34;5038420;28;45304;-72
2023/08/01 01:53:10;;;;;;;;;5.00;5.00;;;;;19.91;65.37;100337.22;5037213;28;45573;-72
2023/08/01 01:55:36;;;;;;;;;5.67;5.33;;;;;19.86;65.82;100334.63;5038069;28;45158;-74
2023/08/01 01:58:01;;;;;;;;;5.00;5.00;;;;;19.93;65.37;100338.06;5038019;28;45207;-72
2023/08/01 02:00:27;;;;;;;;;5.33;5.33;;;;;19.89;65.36;100334.56;5038271;28;45402;-73
2023/08/01 02:02:53;;;;;;;;;6.00;6.00;;;;;19.89;65.11;100325.75;5037169;28;45374;-73
2023/08/01 02:05:18;;;;;;;;;6.33;6.00;;;;;19.95;64.97;100338.94;5038189;28;46129;-72
2023/08/01 02:07:44;;;;;;;;;4.67;4.00;;;;;19.93;65.24;100341.59;5037877;28;45355;-73
2023/08/01 02:10:09;;;;;;;;;4.67;3.00;;;;;19.88;65.18;100338.13;5038165;28;45573;-72
2023/08/01 02:12:35;;;;;;;;;6.67;6.67;;;;;19.73;65.74;100331.22;5038153;28;45249;-72
2023/08/01 02:15:01;;;;;;;;;5.00;4.00;;;;;19.68;65.73;100347.16;5038070;28;45368;-72
2023/08/01 02:17:27;;;;;;;;;6.00;6.00;;;;;19.76;65.76;100349.75;5038048;28;45459;-72
2023/08/01 02:19:53;;;;;;;;;6.00;5.00;;;;;19.79;65.27;100332.94;5036717;28;45264;-72
2023/08/01 02:22:18;;;;;;;;;5.67;4.67;;;;;19.85;65.16;100338.16;5038152;28;45517;-73
2023/08/01 02:24:44;;;;;;;;;5.67;5.00;;;;;19.83;64.89;100334.66;5037574;28;46080;-72
2023/08/01 02:27:09;;;;;;;;;5.67;5.00;;;;;19.81;65.43;100339.09;5037622;28;45182;-72
2023/08/01 02:29:35;;;;;;;;;6.00;6.00;;;;;19.79;65.40;100330.28;5038021;28;45251;-73
2023/08/01 02:32:01;;;;;;;;;4.33;4.33;;;;;19.75;65.29;100323.25;5037983;28;45261;-73
2023/08/01 02:34:27;;;;;;;;;5.33;5.00;;;;;19.79;65.16;100333.81;5037648;28;45979;-74
2023/08/01 02:36:53;;;;;;;;;5.33;5.33;;;;;19.79;65.16;100324.97;5037861;28;45400;-73
2023/08/01 02:39:18;;;;;;;;;5.00;4.33;;;;;19.79;64.64;100323.19;5037662;28;45307;-73
2023/08/01 02:41:44;;;;;;;;;6.00;4.67;;;;;19.71;65.21;100309.16;5036347;28;45470;-72
2023/08/01 02:44:10;;;;;;;;;4.00;4.00;;;;;19.75;65.30;100313.53;5036273;28;46089;-73
2023/08/01 02:46:35;;;;;;;;;7.67;5.00;;;;;19.79;65.13;100312.59;5036173;28;45407;-72
2023/08/01 02:49:01;;;;;;;;;4.33;4.33;;;;;19.74;65.11;100289.72;5037758;28;45462;-72
2023/08/01 02:51:26;;;;;;;;;5.33;5.00;;;;;19.81;64.71;100304.63;5036498;28;45440;-72
2023/08/01 02:53:52;;;;;;;;;5.33;4.67;;;;;19.76;64.90;100285.28;5037684;28;45320;-74
2023/08/01 02:56:18;;;;;;;;;5.33;5.00;;;;;19.84;64.84;100307.25;5037316;28;45473;-73
2023/08/01 02:58:43;;;;;;;;;5.00;5.00;;;;;19.85;64.81;100303.69;5037960;28;45470;-73
2023/08/01 03:01:10;;;;;;;;;5.00;4.33;;;;;19.81;64.85;100300.19;5038461;28;45365;-75
2023/08/01 03:03:36;;;;;;;;;5.33;5.00;;;;;19.70;65.11;100280.88;5037403;28;45979;-74
2023/08/01 03:06:02;;;;;;;;;5.00;4.00;;;;;19.66;65.37;100297.72;5037355;28;45439;-72
2023/08/01 03:08:28;;;;;;;;;6.00;5.33;;;;;19.65;65.47;100295.94;5037528;28;45261;-74
2023/08/01 03:10:54;;;;;;;;;5.00;5.00;;;;;19.69;65.37;100305.63;5037441;28;45351;-74
2023/08/01 03:13:20;;;;;;;;;4.00;4.00;;;;;19.71;65.21;100311.81;5036692;28;45472;-74
2023/08/01 03:15:46;;;;;;;;;5.00;4.00;;;;;19.46;66.09;100305.88;5036985;28;45322;-74
2023/08/01 03:18:11;;;;;;;;;5.00;4.00;;;;;19.38;66.26;100297.16;5035861;28;45522;-74
2023/08/01 03:20:37;;;;;;;;;5.00;5.00;;;;;19.33;66.14;100288.34;5037379;28;45447;-73
2023/08/01 03:23:03;;;;;;;;;5.00;4.00;;;;;19.40;66.01;100279.47;5036906;28;45357;-75
2023/08/01 03:25:29;;;;;;;;;5.00;4.67;;;;;19.52;65.90;100291.66;5037019;28;45537;-74
2023/08/01 03:27:54;;;;;;;;;4.00;4.00;;;;;19.50;65.96;100290.81;5037458;28;45340;-74
2023/08/01 03:30:20;;;;;;;;;3.33;3.33;;;;;19.42;65.79;100272.38;5037228;28;45314;-75
2023/08/01 03:32:47;;;;;;;;;4.67;4.67;;;;;19.47;66.38;100310.28;5036902;28;46154;-75
2023/08/01 03:35:13;;;;;;;;;8.33;5.67;;;;;19.28;66.72;100320.19;5036801;28;45406;-75
2023/08/01 03:37:40;;;;;;;;;5.00;5.00;;;;;19.35;66.69;100323.66;5036952;28;45436;-75
2023/08/01 03:40:09;;;;;;;;;4.00;4.00;;;;;19.44;65.51;100308.53;5036799;28;45304;-73
2023/08/01 03:42:35;;;;;;;;;5.00;5.00;;;;;19.61;65.59;100316.28;5036613;28;46228;-72
2023/08/01 03:45:01;;;;;;;;;4.33;4.00;;;;;19.75;65.44;100318.84;5035305;28;45364;-74
2023/08/01 03:47:26;;;;;;;;;4.67;4.67;;;;;19.86;64.63;100309.00;5037120;28;45305;-74
2023/08/01 03:49:52;;;;;;;;;5.00;4.00;;;;;19.95;64.94;100315.94;5036758;28;45228;-74
2023/08/01 03:52:17;;;;;;;;;5.00;5.00;;;;;20.00;64.62;100302.66;5036429;28;46066;-75
2023/08/01 03:54:43;;;;;;;;;6.67;5.67;;;;;20.04;64.77;100307.03;5035206;28;45443;-74
2023/08/01 03:57:09;;;;;;;;;5.67;4.67;;;;;20.09;64.42;100296.34;5035385;28;45441;-75
2023/08/01 03:59:34;;;;;;;;;6.33;5.33;;;;;20.13;64.28;100282.16;5036828;28;45469;-75
2023/08/01 04:02:00;;;;;;;;;4.00;3.33;;;;;20.16;63.98;100287.41;5036396;28;45513;-74
2023/08/01 04:04:25;;;;;;;;;5.00;5.00;;;;;20.24;63.83;100281.09;5035195;28;45636;-75
2023/08/01 04:06:51;;;;;;;;;5.00;4.33;;;;;20.32;63.77;100286.31;5036424;28;45488;-75
2023/08/01 04:09:17;;;;;;;;;5.67;4.67;;;;;20.35;63.68;100272.09;5036633;28;45502;-75
2023/08/01 04:11:42;;;;;;;;;5.00;5.00;;;;;20.49;63.09;100272.78;5036300;28;45229;-75
2023/08/01 04:14:08;;;;;;;;;6.67;5.33;;;;;20.53;62.92;100268.31;5036358;28;45207;-75
2023/08/01 04:16:34;;;;;;;;;5.67;3.33;;;;;20.68;62.70;100276.06;5036321;28;45458;-74
2023/08/01 04:19:00;;;;;;;;;4.00;3.67;;;;;20.71;62.49;100252.13;5036849;28;45491;-74
2023/08/01 04:21:25;;;;;;;;;5.00;4.00;;;;;20.84;62.10;100256.31;5036188;28;45924;-75
2023/08/01 04:23:51;;;;;;;;;6.33;4.67;;;;;20.96;62.48;100265.84;5036098;28;45363;-75
2023/08/01 04:26:16;;;;;;;;;5.00;4.00;;;;;21.06;62.30;100269.22;5037045;28;45369;-74
2023/08/01 04:28:42;;;;;;;;;5.00;4.33;;;;;21.15;62.30;100268.19;5039927;28;45324;-75
2023/08/01 04:31:08;;;;;;;;;4.00;4.00;;;;;21.14;61.48;100248.72;5038082;28;46253;-75
2023/08/01 04:33:33;;;;;;;;;5.00;5.00;;;;;21.19;61.44;100251.31;5038205;28;45302;-75
2023/08/01 04:35:59;;;;;;;;;4.67;4.00;;;;;21.38;61.40;100265.13;5039588;28;45521;-75
2023/08/01 04:38:24;;;;;;;;;5.00;4.00;;;;;21.47;61.24;100264.97;5039465;28;45299;-75
2023/08/01 04:40:50;;;;;;;;;5.00;5.00;;;;;21.54;60.81;100263.06;5037554;28;46241;-72
2023/08/01 04:43:15;;;;;;;;;5.33;5.00;;;;;21.58;60.48;100255.00;5039115;28;45495;-75
2023/08/01 04:45:41;;;;;;;;;5.33;4.33;;;;;21.74;60.14;100267.97;5038994;28;45329;-72
2023/08/01 04:48:06;;;;;;;;;8.00;5.67;;;;;21.71;59.74;100258.28;5039408;28;45447;-72
2023/08/01 04:50:33;;;;;;;;;6.00;5.67;;;;;21.85;59.43;100266.00;5039232;28;45480;-72
2023/08/01 04:52:59;;;;;;;;;5.00;5.00;;;;;21.83;59.64;100249.19;5039096;28;45515;-74
2023/08/01 04:55:24;;;;;;;;;5.67;4.67;;;;;21.93;59.24;100263.16;5039088;28;45410;-74
2023/08/01 04:57:50;;;;;;;;;6.00;5.67;;;;;21.98;59.06;100259.47;5038018;28;45233;-75
2023/08/01 05:00:17;;;;;;;;;4.33;4.00;;;;;21.98;59.56;100248.84;5038847;28;45982;-74
2023/08/01 05:02:43;;;;;;;;;4.33;4.33;;;;;22.08;59.55;100254.84;5037827;28;45490;-75
2023/08/01 05:05:09;;;;;;;;;5.33;4.67;;;;;22.12;58.92;100255.66;5038775;28;45421;-74
2023/08/01 05:07:35;;;;;;;;;4.00;4.00;;;;;22.14;59.16;100248.50;5038834;28;45354;-74
2023/08/01 05:10:00;;;;;;;;;3.00;3.00;;;;;22.19;59.37;100249.28;5039042;28;45510;-74
2023/08/01 05:12:26;;;;;;;;;7.00;6.00;;;;;22.26;59.25;100271.34;5038591;28;45874;-74
2023/08/01 05:14:52;;;;;;;;;4.00;4.00;;;;;22.21;59.23;100256.31;5038930;28;45284;-73
2023/08/01 05:17:18;;;;;;;;;5.67;4.00;;;;;22.30;59.77;100267.69;5039241;28;46145;-75
2023/08/01 05:19:43;;;;;;;;;5.00;4.33;;;;;22.31;59.97;100267.66;5037149;28;46232;-74
2023/08/01 05:22:09;;;;;;;;;3.67;3.33;;;;;22.38;59.53;100263.97;5038524;28;45497;-75
2023/08/01 05:24:35;;;;;;;;;4.00;3.00;;;;;22.44;59.85;100260.25;5037489;28;45533;-74
2023/08/01 05:27:01;;;;;;;;;5.33;5.00;;;;;22.48;59.77;100259.28;5037757;28;45530;-75
2023/08/01 05:29:27;;;;;;;;;2.00;2.00;;;;;22.50;60.03;100241.50;5038428;28;45324;-75
2023/08/01 05:31:52;;;;;;;;;7.00;4.33;;;;;22.64;59.84;100254.47;5038378;28;45359;-74
2023/08/01 05:34:18;;;;;;;;;4.00;3.67;;;;;22.62;60.26;100246.53;5053992;28;45387;-75
2023/08/01 05:36:43;;;;;;;;;3.00;3.00;;;;;22.69;59.96;100259.69;5038336;28;45294;-75
2023/08/01 05:39:09;;;;;;;;;3.00;3.00;;;;;22.69;60.26;100252.56;5038377;28;45523;-74
2023/08/01 05:41:36;;;;;;;;;7.67;5.67;;;;;22.73;60.02;100262.22;5038330;28;45442;-74
2023/08/01 05:44:02;;;;;;;;;3.00;3.00;;;;;22.69;59.93;100263.22;5038873;28;45406;-75
2023/08/01 05:46:27;;;;;;;;;6.00;5.00;;;;;22.65;59.40;100245.56;5038519;28;45473;-74
2023/08/01 05:48:53;;;;;;;;;6.00;4.67;;;;;22.76;59.41;100254.19;5038272;28;45287;-75
2023/08/01 05:51:19;;;;;;;;;6.00;5.00;;;;;22.68;58.97;100236.63;5038111;28;45339;-75
2023/08/01 05:53:44;;;;;;;;;4.67;3.33;;;;;22.80;59.15;100254.94;5038351;28;45455;-74
2023/08/01 05:56:10;;;;;;;;;5.33;4.00;;;;;22.82;59.69;100254.03;5037995;28;45482;-74
2023/08/01 05:58:36;;;;;;;;;4.00;3.00;;;;;22.89;59.34;100245.88;5037965;28;46122;-75
2023/08/01 06:01:02;;;;;;;;;4.67;4.00;;;;;22.98;59.24;100243.84;5038462;28;45297;-72
2023/08/01 06:03:27;;;;;;;;;5.00;3.00;;;;;23.07;59.09;100253.41;5036359;28;45406;-75
2023/08/01 06:05:55;;;;;;;;;3.67;3.00;;;;;23.09;58.84;100254.25;5036608;28;45867;-75
2023/08/01 06:08:21;;;;;;;;;6.67;5.00;;;;;23.10;59.33;100257.78;5038018;28;46343;-75
2023/08/01 06:10:47;;;;;;;;;6.67;4.33;;;;;23.13;59.34;100245.25;5037528;28;45481;-75
2023/08/01 06:13:12;;;;;;;;;4.00;4.00;;;;;23.19;58.90;100241.56;5037856;28;45399;-75
2023/08/01 06:15:39;;;;;;;;;3.33;3.00;;;;;23.25;58.87;100237.84;5037952;28;45472;-74
2023/08/01 06:18:04;;;;;;;;;5.33;5.00;;;;;23.37;58.77;100242.84;5037919;28;45485;-75
2023/08/01 06:20:30;;;;;;;;;3.33;3.00;;;;;23.41;58.77;100241.84;5037111;28;45478;-75
2023/08/01 06:22:55;;;;;;;;;5.00;4.00;;;;;23.48;58.37;100251.44;5037070;28;45419;-76
2023/08/01 06:25:21;;;;;;;;;5.00;4.00;;;;;23.52;58.34;100244.22;5035573;28;45328;-74
2023/08/01 06:27:48;;;;;;;;;6.00;5.00;;;;;23.54;58.68;100247.72;5037366;28;46127;-73
2023/08/01 06:30:13;;;;;;;;;3.67;3.00;;;;;23.57;58.82;100248.47;5036961;28;45538;-74
2023/08/01 06:32:39;;;;;;;;;6.67;5.00;;;;;23.61;58.45;100252.81;5037056;28;45491;-74
2023/08/01 06:35:05;;;;;;;;;4.00;4.00;;;;;23.64;58.85;100254.53;5037537;28;45779;-72
2023/08/01 06:37:30;;;;;;;;;5.00;4.00;;;;;23.57;60.17;100247.63;5037392;28;47007;-74
2023/08/01 06:39:58;;;;;;;;;4.33;3.67;;;;;23.56;60.19;100249.41;5037079;28;45490;-72
2023/08/01 06:42:24;;;;;;;;;4.00;4.00;;;;;23.59;60.67;100262.66;5036089;28;45674;-72
2023/08/01 06:44:49;;;;;;;;;5.00;4.00;;;;;23.55;60.29;100255.66;5036827;28;45450;-72
2023/08/01 06:47:15;;;;;;;;;5.00;5.00;;;;;23.60;60.51;100264.41;5052152;28;45489;-72
2023/08/01 06:49:40;;;;;;;;;2.67;2.33;;;;;23.59;60.36;100259.97;5036554;28;45519;-74
2023/08/01 06:52:06;;;;;;;;;3.67;3.00;;;;;23.65;60.21;100282.06;5037306;28;45328;-75
2023/08/01 06:54:32;;;;;;;;;11.67;10.33;;;;;23.58;60.33;100266.25;5037531;28;45161;-75
2023/08/01 06:56:59;;;;;;;;;4.67;3.00;;;;;23.70;59.01;100274.81;5035714;28;46862;-74
2023/08/01 06:59:25;;;;;;;;;3.00;3.00;;;;;23.74;59.25;100260.47;5037165;28;45320;-74
2023/08/01 07:01:51;;;;;;;;;5.00;5.00;;;;;23.76;59.16;100255.97;5037245;28;45474;-74
2023/08/01 07:04:16;;;;;;;;;3.33;3.33;;;;;23.91;59.35;100273.34;5037208;28;45528;-75
2023/08/01 07:06:42;;;;;;;;;5.00;4.00;;;;;23.96;59.17;100276.75;5035639;28;46276;-74
2023/08/01 07:09:08;;;;;;;;;3.33;3.33;;;;;23.96;59.42;100277.63;5035936;28;45383;-75
2023/08/01 07:11:33;;;;;;;;;5.67;5.00;;;;;24.02;59.36;100276.56;5037355;28;45797;-73
2023/08/01 07:13:59;;;;;;;;;4.33;4.33;;;;;23.94;59.56;100274.13;5037208;28;45450;-75
2023/08/01 07:16:25;;;;;;;;;4.00;4.00;;;;;24.00;59.57;100281.94;5036928;28;45415;-74
2023/08/01 07:18:50;;;;;;;;;3.67;3.67;;;;;24.12;59.63;100279.84;5034986;28;45526;-74
2023/08/01 07:21:17;;;;;;;;;4.00;3.33;;;;;24.18;59.52;100288.53;5035950;28;45797;-74
2023/08/01 07:23:43;;;;;;;;;4.33;4.33;;;;;24.28;59.13;100285.59;5033467;28;45585;-72
2023/08/01 07:26:09;;;;;;;;;3.00;3.00;;;;;24.33;58.96;100297.88;5035903;28;46217;-74
2023/08/01 07:28:35;;;;;;;;;4.67;4.00;;;;;24.41;59.59;100305.63;5036066;28;45418;-75
2023/08/01 07:31:02;;;;;;;;;3.67;3.33;;;;;24.43;59.73;100290.44;5036053;28;45320;-74
2023/08/01 07:33:28;;;;;;;;;4.67;4.67;;;;;24.40;60.22;100291.41;5036273;28;45431;-74
2023/08/01 07:35:54;;;;;;;;;4.00;3.00;;;;;24.43;60.50;100290.44;5035570;28;45461;-74
2023/08/01 07:38:19;;;;;;;;;2.67;2.67;;;;;24.53;60.10;100288.38;5035591;28;45554;-73
2023/08/01 07:40:45;;;;;;;;;4.33;4.33;;;;;24.50;59.94;100283.13;5035885;28;45402;-72
2023/08/01 07:43:11;;;;;;;;;5.00;4.33;;;;;24.54;59.75;100296.34;5035059;28;45685;-74
2023/08/01 07:45:37;;;;;;;;;4.00;3.33;;;;;24.55;60.02;100297.22;5035960;28;45288;-73
2023/08/01 07:48:03;;;;;;;;;3.67;3.00;;;;;24.56;59.62;100299.84;5035643;28;45429;-72
2023/08/01 07:50:29;;;;;;;;;3.33;3.33;;;;;24.55;60.05;100294.53;5035671;28;45458;-72
2023/08/01 07:52:54;;;;;;;;;4.00;4.00;;;;;24.53;60.55;100293.72;5035725;28;45485;-73
2023/08/01 07:55:21;;;;;;;;;4.00;4.00;;;;;24.58;60.91;100305.16;5035473;28;46193;-72
2023/08/01 07:57:52;;;;;;;;;4.33;4.00;;;;;24.51;61.18;100303.56;5030303;28;45751;-76
2023/08/01 08:00:17;;;;;;;;;5.33;5.00;;;;;24.46;61.35;100290.34;5035159;28;45673;-75
2023/08/01 08:02:45;;;;;;;;;5.00;3.33;;;;;24.54;61.44;100314.19;5037426;28;45519;-75
2023/08/01 08:05:11;;;;;;;;;8.00;5.67;;;;;24.56;62.48;100301.66;5038206;28;46240;-74
2023/08/01 08:07:37;;;;;;;;;4.00;4.00;;;;;24.36;61.44;100295.09;5038028;28;45462;-74
2023/08/01 08:10:04;;;;;;;;;4.00;4.00;;;;;24.31;62.07;100290.81;5036717;28;45537;-74
2023/08/01 08:12:30;;;;;;;;;5.00;5.00;;;;;24.32;62.46;100306.78;5038463;28;45459;-73
2023/08/01 08:14:55;;;;;;;;;7.00;5.00;;;;;24.28;63.24;100310.47;5038010;28;45438;-73
2023/08/01 08:17:21;;;;;;;;;4.00;4.00;;;;;24.45;63.27;100311.75;5038693;28;45494;-72
2023/08/01 08:19:47;;;;;;;;;5.00;4.33;;;;;24.42;63.01;100300.25;5039148;28;45457;-72
2023/08/01 08:22:12;;;;;;;;;3.00;3.00;;;;;24.54;63.76;100311.50;5039151;28;45644;-73
2023/08/01 08:24:38;;;;;;;;;4.67;4.00;;;;;24.57;63.46;100317.63;5038205;28;45514;-73
2023/08/01 08:27:04;;;;;;;;;5.33;5.00;;;;;24.57;64.06;100311.38;5038841;28;45524;-73
2023/08/01 08:29:31;;;;;;;;;8.00;6.00;;;;;24.56;63.91;100309.66;5039314;28;45465;-72
2023/08/01 08:31:57;;;;;;;;;7.67;6.00;;;;;24.48;64.34;100306.31;5039008;28;45527;-73
2023/08/01 08:34:22;;;;;;;;;6.67;5.33;;;;;24.52;63.59;100316.03;5037267;28;45510;-74
2023/08/01 08:36:49;;;;;;;;;6.33;6.00;;;;;24.56;63.50;100318.53;5038838;28;45309;-73
2023/08/01 08:39:16;;;;;;;;;3.67;3.67;;;;;24.58;63.92;100318.50;5038400;28;45466;-73
2023/08/01 08:41:51;;;;;;;;;4.00;4.00;;;;;24.62;63.61;100325.50;5039383;28;45232;-74
2023/08/01 08:44:21;;;;;;;;;7.33;5.67;;;;;24.63;63.47;100326.34;5037051;28;46390;-74
2023/08/01 08:46:54;;;;;;;;;5.00;5.00;;;;;24.62;63.51;100317.47;5037325;28;45450;-74
2023/08/01 08:49:21;;;;;;;;;5.00;4.33;;;;;24.64;62.59;100314.75;5039002;28;45350;-74
2023/08/01 08:51:47;;;;;;;;;6.33;5.00;;;;;24.65;63.25;100321.84;5039034;28;45372;-74
2023/08/01 08:54:15;;;;;;;;;4.67;4.00;;;;;24.69;63.16;100324.38;5037662;28;46978;-74
2023/08/01 08:56:41;;;;;;;;;5.67;5.00;;;;;24.77;63.11;100324.09;5038598;28;45299;-74
2023/08/01 08:59:10;;;;;;;;;4.00;4.00;;;;;24.77;63.38;100314.31;5038931;28;45342;-73
2023/08/01 09:01:36;;;;;;;;;5.67;5.00;;;;;24.74;63.28;100321.56;5038958;28;45272;-74
2023/08/01 09:04:02;;;;;;;;;4.00;4.00;;;;;24.74;63.52;100322.41;5038645;28;45347;-74
2023/08/01 09:06:50;;;;;;;;;4.33;4.33;;;;;24.76;63.88;100325.91;5038356;28;45550;-74
2023/08/01 09:09:15;;;;;;;;;8.33;6.33;;;;;24.76;64.13;100320.56;5038302;28;45497;-72
2023/08/01 09:11:45;;;;;;;;;14.00;13.33;;;;;24.80;64.25;100318.69;5038331;28;45456;-74
2023/08/01 09:14:11;;;;;;;;;8.00;6.33;;;;;24.82;63.97;100327.53;5038556;28;45474;-74
2023/08/01 09:16:37;;;;;;;;;6.33;6.33;;;;;24.77;64.05;100317.00;5037797;28;45508;-74
2023/08/01 09:19:05;;;;;;;;;7.00;6.00;;;;;24.76;64.48;100309.03;5038193;28;45330;-74
2023/08/01 09:21:37;;;;;;;;;6.33;6.33;;;;;24.75;63.53;100316.16;5038169;28;45507;-74
2023/08/01 09:24:14;;;;;;;;;7.00;6.00;;;;;24.77;63.88;100325.00;5037876;28;46066;-73
2023/08/01 09:26:41;;;;;;;;;6.00;5.00;;;;;24.80;63.40;100326.69;5037946;28;45290;-75
2023/08/01 09:29:08;;;;;;;;;4.67;4.67;;;;;24.83;63.82;100334.63;5036565;28;45274;-72
2023/08/01 09:31:43;;;;;;;;;6.33;5.33;;;;;24.79;63.70;100328.50;5037075;28;45439;-72
2023/08/01 09:34:24;;;;;;;;;6.67;6.00;;;;;24.91;63.42;100329.00;5037951;28;45556;-74
2023/08/01 09:36:50;;;;;;;;;10.00;6.00;;;;;24.88;64.14;100321.09;5037945;28;45510;-74
2023/08/01 09:39:20;;;;;;;;;5.67;5.00;;;;;24.87;63.63;100322.00;5038281;28;45514;-73
2023/08/01 09:41:55;;;;;;;;;7.00;6.00;;;;;24.93;63.58;100332.50;5037932;28;45435;-74
2023/08/01 09:44:21;;;;;;;;;5.33;5.00;;;;;25.07;62.92;100316.91;5037438;28;46165;-74
2023/08/01 09:47:04;;;;;;;;;9.67;7.00;;;;;25.16;62.98;100316.56;5035980;28;45245;-74
2023/08/01 09:49:30;;;;;;;;;7.00;6.00;;;;;25.39;62.63;100331.00;5037700;28;45243;-74
2023/08/01 09:51:58;;;;;;;;;5.00;5.00;;;;;25.53;62.37;100327.84;5037528;28;45292;-74
2023/08/01 09:54:23;;;;;;;;;8.67;7.00;;;;;25.66;62.45;100323.78;5036836;28;45363;-74
2023/08/01 09:56:52;;;;;;;;;6.33;5.00;;;;;25.70;62.07;100312.03;5036042;28;45934;-73
2023/08/01 09:59:22;;;;;;;;;5.67;5.00;;;;;25.98;61.04;100327.09;5037818;28;45316;-74
2023/08/01 10:01:50;;;;;;;;;51.25;41.75;;;;;26.21;60.68;100318.22;5035669;28;45473;-73
2023/08/01 10:04:20;;;;;;;;;7.00;7.00;;;;;26.49;60.04;100325.19;5035714;28;46900;-73
2023/08/01 10:06:53;;;;;;;;;10.00;8.67;;;;;26.56;59.64;100321.31;5037084;28;45404;-73
2023/08/01 10:09:19;;;;;;;;;14.33;12.00;;;;;26.67;59.32;100328.97;5037009;28;45490;-73
2023/08/01 10:11:46;;;;;;;;;9.67;8.33;;;;;26.79;59.28;100318.59;5037270;28;45399;-74
2023/08/01 10:14:12;;;;;;;;;6.67;5.33;;;;;27.07;58.93;100330.88;5035428;28;47627;-73
2023/08/01 10:16:39;;;;;;;;;3.67;3.00;;;;;27.19;57.79;100321.44;5036325;28;45406;-72
2023/08/01 10:19:07;;;;;;;;;8.67;8.33;;;;;27.21;58.19;100316.00;5037333;28;45437;-73
2023/08/01 10:21:34;;;;;;;;;5.00;5.00;;;;;27.58;57.71;100324.25;5037257;28;45394;-73
2023/08/01 10:24:01;;;;;;;;;13.00;12.00;;;;;28.25;56.76;100322.16;5035836;28;45539;-72
2023/08/01 10:26:26;;;;;;;;;7.00;7.00;;;;;28.74;55.17;100325.16;5035221;28;45592;-73
2023/08/01 10:28:52;;;;;;;;;8.33;6.33;;;;;29.25;53.11;100305.66;5036761;28;45330;-73
2023/08/01 10:31:21;;;;;;;;;3.67;3.67;;;;;29.54;53.10;100302.34;5036723;28;45446;-73
2023/08/01 10:33:48;;;;;;;;;2.00;1.00;;;;;29.76;52.34;100314.66;5036375;28;46050;-72
2023/08/01 10:36:20;;;;;;;;;17.00;13.67;;;;;29.83;52.15;100307.13;5035564;28;45315;-73
2023/08/01 10:38:49;;;;;;;;;3.33;3.33;;;;;29.86;52.53;100313.19;5036993;28;45445;-73
2023/08/01 10:41:29;;;;;;;;;4.00;4.00;;;;;30.04;52.28;100315.84;5036871;28;45423;-73
2023/08/01 10:44:06;;;;;;;;;2.00;2.00;;;;;30.29;51.43;100307.28;5035374;28;46395;-73
2023/08/01 10:46:49;;;;;;;;;1.33;1.00;;;;;30.22;50.65;100300.50;5036464;28;45330;-73
2023/08/01 10:49:15;;;;;;;;;8.00;7.33;;;;;29.88;52.07;100300.56;5036176;28;45228;-73
2023/08/01 10:51:41;;;;;;;;;7.67;6.67;;;;;29.60;51.55;100303.81;5036890;28;45279;-73
2023/08/01 10:54:22;;;;;;;;;5.00;5.00;;;;;29.49;51.44;100293.63;5036051;28;46058;-72
2023/08/01 10:56:52;;;;;;;;;4.00;4.00;;;;;29.37;51.40;100298.75;5036159;28;45564;-73
2023/08/01 10:59:18;;;;;;;;;2.33;2.33;;;;;29.28;51.42;100313.56;5034826;28;45373;-72
2023/08/01 11:01:49;;;;;;;;;2.67;2.67;;;;;29.04;51.98;100302.22;5035047;28;45495;-73
2023/08/01 11:04:19;;;;;;;;;4.33;3.00;;;;;29.00;52.52;100304.19;5036288;28;45466;-73
2023/08/01 11:06:52;;;;;;;;;4.33;4.33;;;;;28.91;51.86;100297.47;5036343;28;45454;-73
2023/08/01 11:09:22;;;;;;;;;2.00;2.00;;;;;28.72;52.64;100294.81;5035128;28;45494;-73
2023/08/01 11:11:50;;;;;;;;;2.00;2.00;;;;;28.65;52.59;100296.06;5035665;28;45511;-73
2023/08/01 11:14:19;;;;;;;;;3.00;3.00;;;;;28.65;52.83;100303.25;5036372;28;45461;-73
2023/08/01 11:16:44;;;;;;;;;3.33;3.00;;;;;28.55;53.32;100308.19;5036111;28;45315;-73
2023/08/01 11:19:27;;;;;;;;;3.00;3.00;;;;;28.63;53.92;100311.41;5035243;28;45504;-73
2023/08/01 11:21:57;;;;;;;;;4.00;3.00;;;;;28.69;55.33;100312.91;5036334;28;45434;-73